KBAD

Barksdale AFB Airport

Bossier City, Louisiana, USA
METAR KBAD 212256Z AUTO 33007KT 10SM CLR 33/17 A3002 RMK AO2 SLP167 T03330166
Observed Flight Rules
Aug-21 @ 22:56 UTC (48 minutes ago) Visual Flight Rules
Wind Visibility Clouds
330° at 7 knots 10 miles
  • Clear skies
Temperatures Readings
Current 33°C / 91°F
Dewpoint 17°C / 63°F
Humidity 38%
Altimeter 30.02" Hg
Pressure 1016.7 hPa
Elevation 51
METAR KBAD 212256Z AUTO 33007KT 10SM CLR 33/17 A3002 RMK AO2 SLP167 T03330166
Observed Flight Rules
Aug-21 @ 22:56 UTC
(48 minutes ago)
VFR
Wind Visibility
330° at 7 knots 10 miles
Clouds
  • Clear skies
Temperature Dewpoint
33°C / 91°F 17°C / 63°F
Humidity Altimeter Pressure
38% 30.02" Hg 1016.7 hPa